De Soto, Kansas
Current Conditions -  °F | °C
As of 6:53 PM on Wednesday 22 Oct 2014 (Local Time) from KIXD Reporting Station
Clear Clear  
Wind Chill: 66°   Ceiling: Unl
Heat Index: 66°   Visibility: 10mi
Dew Point: 56°   Wind: 9mph
Humidity: 70%   Direction: 130°SE
Pressure: 30.1"   Gusts: NA
Location:  38.98°N, 94.97°W
Report Text: KIXD 222353Z 13008KT 10SM CLR 19/13 A3010 RMK AO2 SLP190 T01890133 10228 20189 55001
Loading
Personal Weather Stations






























Interactive Weather Map
Tropical Storm Tracking
New forecast layout! Learn more

10-Day Weather Forecast

Advertisements
Track Severe Weather on mobile